Time;durP1;ratioP1;P1;durP2;ratioP2;P2;SDS_P1;SDS_P2;PMS_P1;PMS_P2;Temp;Humidity;BMP_temperature;BMP_pressure;BME280_temperature;BME280_humidity;BME280_pressure;Samples;Min_cycle;Max_cycle;Signal;HPM_P1;HPM_P2
2023/08/05 00:00:58;;;;;;;5.50;1.90;;;12.80;99.90;;;12.16;100.00;97853.06;4998511;28;20109;-76
2023/08/05 00:03:28;;;;;;;5.93;2.00;;;12.80;99.90;;;12.19;100.00;97847.69;4998117;28;20053;-76
2023/08/05 00:05:55;;;;;;;7.22;2.58;;;12.80;99.90;;;12.22;100.00;97850.16;4999547;28;20058;-75
2023/08/05 00:08:23;;;;;;;6.13;2.00;;;12.80;99.90;;;12.03;100.00;97844.94;4996733;28;20168;-75
2023/08/05 00:10:50;;;;;;;10.27;2.60;;;12.80;99.90;;;11.97;100.00;97847.81;4997624;28;20100;-76
2023/08/05 00:13:17;;;;;;;10.85;2.15;;;12.80;99.90;;;11.97;100.00;97845.19;4998516;28;20050;-76
2023/08/05 00:15:45;;;;;;;8.63;1.83;;;12.70;99.90;;;12.03;100.00;97854.50;5000476;28;20057;-76
2023/08/05 00:18:12;;;;;;;7.35;2.22;;;12.70;99.90;;;12.01;100.00;97851.97;4998505;28;20465;-75
2023/08/05 00:20:39;;;;;;;8.15;2.67;;;12.70;99.90;;;12.12;100.00;97854.09;5001534;28;20052;-75
2023/08/05 00:23:06;;;;;;;6.13;2.00;;;12.70;99.90;;;12.00;100.00;97865.06;5001612;28;20072;-76
2023/08/05 00:25:33;;;;;;;4.35;2.13;;;12.70;99.90;;;12.03;100.00;97860.56;5001944;28;20046;-75
2023/08/05 00:28:00;;;;;;;5.65;2.17;;;12.60;99.90;;;12.00;100.00;97857.25;5003151;28;20054;-76
2023/08/05 00:30:27;;;;;;;3.60;2.22;;;12.60;99.90;;;11.97;100.00;97859.97;5005378;28;20485;-76
2023/08/05 00:32:54;;;;;;;5.85;2.05;;;12.60;99.90;;;12.09;100.00;97862.88;5003983;28;20080;-76
2023/08/05 00:35:23;;;;;;;5.32;2.53;;;12.60;99.90;;;12.08;100.00;97860.34;5004754;28;20500;-76
2023/08/05 00:37:50;;;;;;;4.70;1.80;;;12.70;99.90;;;12.10;100.00;97861.97;5002629;28;20499;-76
2023/08/05 00:40:17;;;;;;;8.27;2.20;;;12.70;99.90;;;12.09;100.00;97859.44;5005851;28;20116;-75
2023/08/05 00:42:44;;;;;;;5.03;1.92;;;12.70;99.90;;;12.10;100.00;97864.56;5006401;28;20062;-76
2023/08/05 00:45:11;;;;;;;6.70;2.40;;;12.70;99.90;;;12.12;100.00;97859.31;5004675;28;20090;-76
2023/08/05 00:47:38;;;;;;;5.72;2.20;;;12.70;99.90;;;12.08;100.00;97863.78;5005677;28;20490;-75
2023/08/05 00:50:06;;;;;;;3.28;2.05;;;12.70;99.90;;;12.10;100.00;97864.56;4999520;28;20137;-76
2023/08/05 00:52:33;;;;;;;4.13;1.90;;;12.70;99.90;;;12.14;100.00;97863.53;5001478;28;20419;-76
2023/08/05 00:55:00;;;;;;;4.47;1.73;;;12.70;99.90;;;12.14;100.00;97853.13;5002295;28;20054;-76
2023/08/05 00:57:28;;;;;;;3.42;2.10;;;12.70;99.90;;;12.12;100.00;97861.91;5003552;28;20539;-76
2023/08/05 00:59:55;;;;;;;5.53;2.05;;;12.80;99.90;;;12.03;100.00;97870.94;4996425;28;20053;-76
2023/08/05 01:02:22;;;;;;;5.43;1.90;;;12.70;99.90;;;12.00;100.00;97870.25;4993808;28;20683;-76
2023/08/05 01:04:49;;;;;;;8.27;2.28;;;12.70;99.90;;;12.02;100.00;97865.81;5004835;28;20655;-76
2023/08/05 01:07:21;;;;;;;4.00;1.83;;;12.70;99.90;;;11.85;100.00;97856.13;5002924;28;20065;-76
2023/08/05 01:09:49;;;;;;;8.13;2.75;;;12.70;99.90;;;11.77;100.00;97855.59;5003111;28;20119;-76
2023/08/05 01:12:16;;;;;;;8.65;3.05;;;12.60;99.90;;;11.77;100.00;97853.84;5004422;28;20050;-76
2023/08/05 01:14:43;;;;;;;6.97;3.35;;;12.60;99.90;;;11.67;100.00;97849.94;5007109;28;20120;-76
2023/08/05 01:17:10;;;;;;;3.55;1.90;;;12.50;99.90;;;11.57;100.00;97853.88;5004039;28;20061;-76
2023/08/05 01:19:38;;;;;;;12.05;2.60;;;12.40;99.90;;;11.64;100.00;97860.50;5004843;28;20122;-75
2023/08/05 01:22:34;;;;;;;6.60;2.17;;;12.40;99.90;;;11.61;100.00;97858.88;5003617;28;20428;-76
2023/08/05 01:25:25;;;;;;;3.72;1.98;;;12.40;99.90;;;11.54;100.00;97856.56;5000416;28;20101;-76
2023/08/05 01:27:53;;;;;;;9.65;2.40;;;12.30;99.90;;;11.55;100.00;97859.13;5002761;28;20464;-76
2023/08/05 01:30:23;;;;;;;7.03;2.03;;;12.30;99.90;;;11.48;100.00;97850.72;5000011;28;20046;-74
2023/08/05 01:32:53;;;;;;;9.30;3.13;;;12.20;99.90;;;11.48;100.00;97850.72;4999554;28;20486;-76
2023/08/05 01:35:23;;;;;;;12.07;2.53;;;12.20;99.90;;;11.44;100.00;97841.34;4998803;28;20052;-76
2023/08/05 01:37:50;;;;;;;6.03;2.55;;;12.20;99.90;;;11.30;100.00;97839.34;5004391;28;20441;-76
2023/08/05 01:40:18;;;;;;;4.15;2.28;;;12.10;99.90;;;11.39;100.00;97830.31;5004128;28;20058;-76
2023/08/05 01:42:45;;;;;;;8.85;2.65;;;12.10;99.90;;;11.19;100.00;97835.50;5003926;28;20429;-75
2023/08/05 01:45:12;;;;;;;9.50;2.20;;;12.00;99.90;;;11.27;100.00;97830.84;5006487;28;20112;-75
2023/08/05 01:47:39;;;;;;;3.10;2.15;;;12.00;99.90;;;11.30;100.00;97831.53;5003554;28;20058;-75
2023/08/05 01:50:06;;;;;;;5.10;2.40;;;12.00;99.90;;;11.26;100.00;97821.34;5004859;28;20424;-76
2023/08/05 01:52:33;;;;;;;4.90;2.10;;;12.00;99.90;;;11.18;100.00;97826.03;5004224;28;20042;-77
2023/08/05 01:55:00;;;;;;;5.50;2.70;;;12.00;99.90;;;11.16;100.00;97827.84;5003472;28;20803;-76
2023/08/05 01:57:27;;;;;;;4.72;2.28;;;11.90;99.90;;;11.20;100.00;97824.19;5001425;28;20084;-76
2023/08/05 01:59:54;;;;;;;5.88;2.53;;;11.90;99.90;;;11.21;100.00;97828.47;5002973;28;20479;-76
2023/08/05 02:02:21;;;;;;;6.95;2.15;;;11.90;99.90;;;11.15;100.00;97818.34;5005762;28;20107;-75
2023/08/05 02:04:49;;;;;;;2.88;1.73;;;11.90;99.90;;;11.18;100.00;97823.44;5005272;28;20142;-76
2023/08/05 02:07:17;;;;;;;3.33;1.92;;;11.90;99.90;;;11.28;100.00;97816.94;5005140;28;20092;-75
2023/08/05 02:09:44;;;;;;;7.78;2.20;;;11.90;99.90;;;11.25;100.00;97820.50;5005769;28;20046;-76
2023/08/05 02:12:11;;;;;;;4.18;2.00;;;11.90;99.90;;;11.22;100.00;97822.38;5004272;28;20053;-76
2023/08/05 02:14:38;;;;;;;6.95;2.17;;;11.90;99.90;;;11.20;100.00;97825.06;5001204;28;20132;-76
2023/08/05 02:17:06;;;;;;;11.48;1.98;;;11.90;99.90;;;11.28;100.00;97811.72;5003206;28;20053;-76
2023/08/05 02:19:33;;;;;;;9.48;2.13;;;11.90;99.90;;;11.29;100.00;97806.47;5005284;28;20405;-75
2023/08/05 02:22:00;;;;;;;4.60;2.22;;;11.90;99.90;;;11.35;100.00;97804.53;5005652;28;20046;-76
2023/08/05 02:24:27;;;;;;;4.78;1.80;;;11.90;99.90;;;11.19;100.00;97801.72;5003576;28;20042;-74
2023/08/05 02:26:54;;;;;;;4.05;1.60;;;11.80;99.90;;;11.25;100.00;97804.91;4998282;28;20096;-76
2023/08/05 02:29:21;;;;;;;4.20;2.25;;;11.90;99.90;;;11.19;100.00;97806.91;4997037;28;20073;-75
2023/08/05 02:31:51;;;;;;;7.97;2.40;;;11.90;99.90;;;11.21;100.00;97800.75;5004938;28;20405;-75
2023/08/05 02:34:18;;;;;;;4.72;2.10;;;11.90;99.90;;;11.23;100.00;97796.31;5003272;28;20046;-76
2023/08/05 02:36:45;;;;;;;5.25;2.15;;;11.90;99.90;;;11.25;100.00;97796.28;5004562;28;20058;-75
2023/08/05 02:39:13;;;;;;;2.50;1.65;;;11.90;99.90;;;11.14;100.00;97782.88;5006789;28;20073;-74
2023/08/05 02:41:40;;;;;;;8.10;2.50;;;12.00;99.90;;;11.05;100.00;97777.16;4999362;28;20049;-75
2023/08/05 02:44:07;;;;;;;5.57;2.28;;;11.90;99.90;;;11.06;100.00;97777.97;5003189;28;20046;-76
2023/08/05 02:46:34;;;;;;;4.93;1.60;;;11.90;99.90;;;11.08;100.00;97779.63;4998040;28;20051;-75
2023/08/05 02:49:01;;;;;;;3.90;2.03;;;11.80;99.90;;;11.02;100.00;97781.66;5004896;28;20050;-76
2023/08/05 02:51:28;;;;;;;3.38;1.77;;;11.80;99.90;;;11.02;100.00;97776.44;5004254;28;20046;-75
2023/08/05 02:53:55;;;;;;;3.17;1.85;;;11.80;99.90;;;11.09;100.00;97770.09;5003426;28;20515;-76
2023/08/05 02:56:22;;;;;;;4.65;1.88;;;11.70;99.90;;;11.04;100.00;97757.28;5015141;28;20049;-76
2023/08/05 02:58:49;;;;;;;4.00;1.58;;;11.70;99.90;;;10.91;100.00;97752.66;5003891;28;20069;-76
2023/08/05 03:01:20;;;;;;;3.28;1.63;;;11.70;99.90;;;10.95;100.00;97751.59;5003334;28;20735;-76
2023/08/05 03:03:46;;;;;;;7.80;2.00;;;11.60;99.90;;;10.92;100.00;97738.75;5003043;28;20054;-76
2023/08/05 03:06:13;;;;;;;5.70;2.45;;;11.60;99.90;;;10.88;100.00;97756.25;5005137;28;20053;-76
2023/08/05 03:08:41;;;;;;;3.35;1.70;;;11.60;99.90;;;10.52;100.00;97754.22;5000853;28;20497;-76
2023/08/05 03:11:08;;;;;;;9.48;2.55;;;11.60;99.90;;;10.66;100.00;97745.88;5001712;28;20046;-76
2023/08/05 03:13:35;;;;;;;2.70;1.90;;;11.50;99.90;;;10.75;100.00;97742.91;4999962;28;20050;-76
2023/08/05 03:16:12;;;;;;;4.47;2.00;;;11.50;99.90;;;10.83;100.00;97734.78;5002005;28;20056;-76
2023/08/05 03:18:40;;;;;;;6.55;1.98;;;11.50;99.90;;;10.76;100.00;97736.78;5001946;28;20498;-76
2023/08/05 03:21:07;;;;;;;4.22;2.42;;;11.50;99.90;;;10.65;100.00;97733.78;5005606;28;20058;-76
2023/08/05 03:23:34;;;;;;;4.82;2.42;;;11.40;99.90;;;10.66;100.00;97741.50;4994672;28;20049;-76
2023/08/05 03:26:01;;;;;;;6.90;2.00;;;11.40;99.90;;;10.66;100.00;97735.47;5000468;28;20085;-76
2023/08/05 03:28:28;;;;;;;3.25;1.60;;;11.40;99.90;;;10.68;100.00;97739.72;5003460;28;20132;-77
2023/08/05 03:30:56;;;;;;;4.03;1.70;;;11.40;99.90;;;10.72;100.00;97734.38;5001428;28;20499;-76
2023/08/05 03:33:23;;;;;;;3.45;2.03;;;11.40;99.90;;;10.72;100.00;97737.84;4995445;28;20108;-76
2023/08/05 03:35:50;;;;;;;3.30;2.17;;;11.40;99.90;;;10.67;100.00;97735.44;5004400;28;20050;-75
2023/08/05 03:38:18;;;;;;;9.00;2.55;;;11.30;99.90;;;10.51;100.00;97746.47;5002194;28;20060;-76
2023/08/05 03:40:45;;;;;;;5.07;2.42;;;11.30;99.90;;;10.52;100.00;97750.78;4996915;28;20057;-76
2023/08/05 03:43:12;;;;;;;7.45;2.58;;;11.20;99.90;;;10.55;100.00;97756.66;5005469;28;20112;-76
2023/08/05 03:45:39;;;;;;;11.23;4.10;;;11.30;99.90;;;10.39;100.00;97759.03;5003764;28;20056;-76
2023/08/05 03:48:06;;;;;;;4.88;2.72;;;11.20;99.90;;;10.55;100.00;97780.03;5004151;28;20065;-76
2023/08/05 03:50:33;;;;;;;9.32;3.47;;;11.20;99.90;;;10.46;100.00;97789.00;5001830;28;20046;-75
2023/08/05 03:53:00;;;;;;;19.40;4.78;;;11.10;99.90;;;10.21;100.00;97793.44;5003051;28;20053;-76
2023/08/05 03:55:27;;;;;;;4.18;2.70;;;11.10;99.90;;;10.32;100.00;97795.66;5002028;28;20120;-75
2023/08/05 03:57:54;;;;;;;4.13;2.58;;;11.00;99.90;;;10.37;100.00;97810.13;4999519;28;20481;-76
2023/08/05 04:00:21;;;;;;;4.93;2.72;;;11.10;99.90;;;10.44;100.00;97808.97;5003466;28;20480;-75
2023/08/05 04:02:48;;;;;;;7.13;2.88;;;11.10;99.90;;;10.38;100.00;97816.19;5003970;28;20100;-76
2023/08/05 04:05:16;;;;;;;5.43;2.53;;;11.10;99.90;;;10.45;100.00;97813.28;5002722;28;20136;-76
2023/08/05 04:07:43;;;;;;;5.60;2.85;;;11.10;99.90;;;10.48;100.00;97807.13;5004826;28;20473;-75
2023/08/05 04:10:12;;;;;;;6.82;2.85;;;11.10;99.90;;;10.49;100.00;97813.16;4999205;28;20082;-76
2023/08/05 04:12:39;;;;;;;6.00;2.10;;;11.20;99.90;;;10.43;100.00;97812.50;5002964;28;20701;-75
2023/08/05 04:15:08;;;;;;;4.68;2.30;;;11.20;99.90;;;10.50;100.00;97813.13;5007568;28;20699;-75
2023/08/05 04:17:35;;;;;;;6.70;2.60;;;11.10;99.90;;;10.33;100.00;97815.50;4998353;28;20049;-75
2023/08/05 04:20:03;;;;;;;6.18;2.65;;;11.10;99.90;;;10.21;100.00;97811.59;5007948;28;20073;-76
2023/08/05 04:22:30;;;;;;;4.28;2.55;;;11.00;99.90;;;10.11;100.00;97811.09;5006683;28;20160;-76
2023/08/05 04:24:57;;;;;;;8.68;2.63;;;10.90;99.90;;;10.01;100.00;97813.19;5007464;28;20108;-75
2023/08/05 04:27:24;;;;;;;9.15;2.63;;;10.70;99.90;;;10.02;100.00;97819.22;5004674;28;20061;-77
2023/08/05 04:29:51;;;;;;;5.32;1.85;;;10.70;99.90;;;10.18;100.00;97829.88;5008812;28;20525;-76
2023/08/05 04:32:18;;;;;;;2.97;1.80;;;10.70;99.90;;;10.34;100.00;97832.78;5006411;28;20080;-76
2023/08/05 04:34:46;;;;;;;4.25;2.08;;;10.80;99.90;;;10.43;100.00;97835.00;5003976;28;20057;-76
2023/08/05 04:37:21;;;;;;;2.08;1.20;;;10.90;99.90;;;10.60;100.00;97827.41;5006896;28;20100;-74
2023/08/05 04:39:49;;;;;;;3.83;2.05;;;11.00;99.90;;;10.61;100.00;97815.31;5008074;28;20047;-76
2023/08/05 04:42:17;;;;;;;3.75;1.88;;;11.10;99.90;;;10.61;100.00;97808.34;5005461;28;20153;-76
2023/08/05 04:44:45;;;;;;;2.72;1.40;;;11.20;99.90;;;10.64;100.00;97792.66;5007359;28;20578;-76
2023/08/05 04:47:13;;;;;;;3.83;1.45;;;11.30;99.90;;;10.79;100.00;97785.19;5005347;28;20050;-76
2023/08/05 04:49:43;;;;;;;3.17;1.08;;;11.30;99.90;;;10.83;100.00;97776.34;5008954;28;20492;-76
2023/08/05 04:52:14;;;;;;;3.00;1.60;;;11.30;99.90;;;10.63;100.00;97769.38;5003926;28;20108;-76
2023/08/05 04:54:45;;;;;;;2.83;1.77;;;11.40;99.90;;;10.48;100.00;97767.38;5007004;28;20049;-77
2023/08/05 04:57:13;;;;;;;3.75;2.00;;;11.30;99.90;;;10.46;100.00;97764.81;5007068;28;20055;-74
2023/08/05 04:59:40;;;;;;;6.72;2.22;;;11.20;99.90;;;10.53;100.00;97768.03;4998663;28;20053;-76
2023/08/05 05:02:07;;;;;;;3.15;1.80;;;11.20;99.90;;;10.50;100.00;97769.00;4989417;28;20108;-76
2023/08/05 05:04:34;;;;;;;2.55;1.50;;;11.20;99.90;;;10.72;100.00;97766.41;5007293;28;20064;-76
2023/08/05 05:07:01;;;;;;;2.95;1.50;;;11.20;99.90;;;10.76;100.00;97767.94;5006548;28;20093;-75
2023/08/05 05:09:29;;;;;;;2.85;1.67;;;11.30;99.90;;;10.93;100.00;97766.44;5005691;28;20058;-76
2023/08/05 05:11:56;;;;;;;3.05;1.50;;;11.40;99.90;;;11.13;100.00;97760.41;5006342;28;20053;-75
2023/08/05 05:14:23;;;;;;;2.65;1.42;;;11.50;99.90;;;11.10;100.00;97766.56;5007003;28;20088;-75
2023/08/05 05:16:51;;;;;;;2.30;1.25;;;11.40;99.90;;;10.99;100.00;97769.63;5006711;28;20535;-76
2023/08/05 05:19:18;;;;;;;7.38;2.17;;;11.40;99.90;;;10.68;100.00;97770.84;5005192;28;20041;-75
2023/08/05 05:21:45;;;;;;;3.40;1.80;;;11.30;99.90;;;10.59;100.00;97772.97;5005197;28;20058;-76
2023/08/05 05:24:12;;;;;;;5.60;2.70;;;11.20;99.90;;;10.66;100.00;97779.63;5002725;28;20060;-76
2023/08/05 05:26:39;;;;;;;3.03;1.75;;;11.10;99.90;;;10.84;100.00;97778.03;5006121;28;20053;-75
2023/08/05 05:29:06;;;;;;;4.38;1.60;;;11.10;99.90;;;10.74;100.00;97780.16;5001394;28;20137;-75
2023/08/05 05:31:33;;;;;;;2.83;1.60;;;11.10;99.90;;;11.03;100.00;97786.75;5001388;28;20149;-76
2023/08/05 05:34:01;;;;;;;4.32;1.60;;;11.30;99.90;;;11.31;100.00;97783.00;5021372;28;20049;-76
2023/08/05 05:36:28;;;;;;;5.60;1.60;;;11.50;99.90;;;11.47;100.00;97772.81;5003916;28;20451;-75
2023/08/05 05:38:55;;;;;;;3.45;1.40;;;11.70;99.90;;;11.62;100.00;97769.53;5003517;28;20168;-76
2023/08/05 05:41:22;;;;;;;4.95;1.30;;;11.80;99.90;;;11.89;100.00;97764.06;5006325;28;20500;-76
2023/08/05 05:43:49;;;;;;;3.78;1.40;;;12.00;99.90;;;12.23;100.00;97749.53;5004310;28;20464;-76
2023/08/05 05:46:19;;;;;;;2.28;1.30;;;12.10;99.90;;;12.36;100.00;97742.81;5007701;28;20189;-75
2023/08/05 05:48:46;;;;;;;2.75;1.60;;;12.30;99.90;;;12.67;100.00;97737.00;5005725;28;20137;-75
2023/08/05 05:51:13;;;;;;;2.47;1.30;;;12.50;99.90;;;12.63;100.00;97726.78;5005029;28;20127;-76
2023/08/05 05:53:41;;;;;;;3.85;2.08;;;12.70;99.90;;;12.82;100.00;97717.19;5005759;28;20041;-76
2023/08/05 05:56:08;;;;;;;3.38;2.25;;;12.80;99.90;;;12.90;100.00;97716.78;5006100;28;20474;-76
2023/08/05 05:58:35;;;;;;;3.67;1.77;;;12.90;99.90;;;12.98;100.00;97720.69;5002282;28;20050;-74
2023/08/05 06:01:02;;;;;;;8.02;2.17;;;13.00;99.90;;;13.29;100.00;97713.13;5004847;28;20401;-75
2023/08/05 06:03:33;;;;;;;5.80;2.00;;;13.10;99.90;;;13.39;100.00;97711.75;5005152;28;20473;-76
2023/08/05 06:06:01;;;;;;;2.60;1.52;;;13.30;99.90;;;13.71;100.00;97714.44;5007533;28;20054;-75
2023/08/05 06:08:28;;;;;;;6.22;1.98;;;13.50;99.90;;;13.99;100.00;97705.94;4997996;28;20085;-76
2023/08/05 06:10:55;;;;;;;4.82;2.17;;;13.70;99.90;;;13.97;100.00;97707.81;5002697;28;20637;-76
2023/08/05 06:13:22;;;;;;;4.10;1.88;;;13.90;99.90;;;14.17;100.00;97704.09;4996147;28;20041;-74
2023/08/05 06:15:52;;;;;;;2.90;1.90;;;14.00;99.90;;;14.37;100.00;97705.63;5002415;28;20651;-76
2023/08/05 06:18:20;;;;;;;8.40;3.15;;;14.10;99.90;;;13.99;100.00;97706.78;5000430;28;20560;-76
2023/08/05 06:20:48;;;;;;;3.10;2.10;;;14.10;99.90;;;14.12;100.00;97708.75;5002113;28;20108;-77
2023/08/05 06:23:16;;;;;;;7.55;2.53;;;14.10;99.90;;;14.24;100.00;97713.28;4998213;28;20057;-76
2023/08/05 06:25:43;;;;;;;4.18;2.72;;;14.00;99.90;;;14.09;100.00;97712.34;5018677;28;20507;-77
2023/08/05 06:28:10;;;;;;;5.38;2.72;;;14.00;99.90;;;14.18;100.00;97717.06;5003663;28;20568;-76
2023/08/05 06:30:46;;;;;;;3.92;2.85;;;14.00;99.90;;;14.22;100.00;97723.78;5003587;28;20157;-76
2023/08/05 06:33:13;;;;;;;6.05;2.58;;;14.20;99.90;;;14.13;100.00;97736.53;5004256;28;20567;-75
2023/08/05 06:35:40;;;;;;;7.50;2.95;;;14.30;99.90;;;14.20;100.00;97741.31;5002692;28;20096;-75
2023/08/05 06:38:07;;;;;;;7.70;3.05;;;14.50;99.90;;;14.35;100.00;97742.25;5005014;28;20048;-76
2023/08/05 06:40:35;;;;;;;6.40;2.90;;;14.50;99.90;;;14.47;100.00;97737.28;5001933;28;20313;-76
2023/08/05 06:43:02;;;;;;;4.88;2.83;;;14.60;99.90;;;14.83;100.00;97731.78;5000545;28;20511;-76
2023/08/05 06:45:31;;;;;;;4.18;2.50;;;14.70;99.90;;;15.21;100.00;97742.63;5004674;28;20050;-76
2023/08/05 06:48:04;;;;;;;7.07;3.40;;;14.80;99.90;;;15.13;100.00;97736.16;4990273;28;20477;-76
2023/08/05 06:50:33;;;;;;;3.88;3.00;;;14.90;99.90;;;15.21;100.00;97741.75;5003915;28;20137;-76
2023/08/05 06:53:00;;;;;;;6.57;3.17;;;15.10;99.90;;;15.18;100.00;97736.72;5003577;28;20070;-76
2023/08/05 06:55:27;;;;;;;8.13;3.88;;;15.20;99.90;;;15.30;100.00;97728.16;5003700;28;20084;-76
2023/08/05 06:57:54;;;;;;;6.65;4.75;;;15.40;99.90;;;15.39;100.00;97724.97;5001341;28;20159;-76
2023/08/05 07:00:25;;;;;;;7.30;4.90;;;15.50;99.90;;;15.58;100.00;97714.28;5004235;28;20124;-76
2023/08/05 07:02:52;;;;;;;7.95;5.90;;;15.60;99.90;;;15.71;100.00;97716.16;5003793;28;20058;-76
2023/08/05 07:05:19;;;;;;;9.48;5.45;;;15.70;99.90;;;15.75;100.00;97705.41;4999804;28;20439;-76
2023/08/05 07:07:46;;;;;;;5.95;4.10;;;15.80;99.90;;;15.97;100.00;97704.94;5000296;28;20128;-76
2023/08/05 07:10:15;;;;;;;6.63;3.95;;;15.90;99.90;;;16.21;100.00;97694.69;5003423;28;20551;-76
2023/08/05 07:12:42;;;;;;;7.50;3.90;;;15.90;99.90;;;16.33;100.00;97690.47;5003363;28;20045;-76
2023/08/05 07:15:09;;;;;;;9.23;4.28;;;16.00;99.90;;;16.36;100.00;97679.78;5004167;28;20119;-76
2023/08/05 07:17:38;;;;;;;8.05;4.45;;;16.10;99.90;;;16.50;100.00;97679.72;5003536;28;20049;-75
2023/08/05 07:20:09;;;;;;;5.97;4.35;;;16.30;99.90;;;16.80;100.00;97675.22;5005706;28;20050;-76
2023/08/05 07:22:36;;;;;;;6.00;3.50;;;16.60;99.90;;;17.02;100.00;97675.47;5006299;28;20788;-77
2023/08/05 07:25:04;;;;;;;7.85;3.97;;;16.90;99.90;;;17.17;100.00;97664.88;5000347;28;20054;-77
2023/08/05 07:27:31;;;;;;;8.60;4.43;;;17.00;99.90;;;16.92;100.00;97664.75;5003607;28;20057;-77
2023/08/05 07:29:58;;;;;;;7.18;4.32;;;17.10;99.90;;;16.96;100.00;97657.50;5001886;28;20100;-77
2023/08/05 07:32:25;;;;;;;5.97;4.53;;;17.00;99.90;;;17.07;100.00;97649.78;5004716;28;20085;-77
2023/08/05 07:34:54;;;;;;;5.45;4.30;;;16.90;99.90;;;17.02;100.00;97630.06;5002145;28;20050;-77
2023/08/05 07:37:22;;;;;;;8.60;4.57;;;16.90;99.90;;;17.00;100.00;97626.69;5003227;28;20108;-75
2023/08/05 07:39:49;;;;;;;6.82;4.30;;;16.80;99.90;;;17.23;100.00;97618.09;4994181;28;20054;-77
2023/08/05 07:42:18;;;;;;;9.20;5.47;;;17.00;99.90;;;17.21;100.00;97614.72;5003661;28;20046;-77
2023/08/05 07:44:46;;;;;;;10.88;6.05;;;17.00;99.90;;;16.68;100.00;97625.25;5006985;28;20093;-77
2023/08/05 07:47:14;;;;;;;6.53;4.50;;;17.10;99.90;;;16.89;100.00;97632.66;5001891;28;20084;-77
2023/08/05 07:49:41;;;;;;;6.20;4.90;;;17.10;99.90;;;16.90;100.00;97632.56;5007434;28;20050;-76
2023/08/05 07:52:08;;;;;;;8.93;4.70;;;17.10;99.90;;;17.19;100.00;97618.41;5008546;28;20041;-77
2023/08/05 07:54:35;;;;;;;5.82;4.07;;;17.10;99.90;;;17.67;100.00;97610.66;5007129;28;20041;-77
2023/08/05 07:57:03;;;;;;;7.97;4.20;;;17.40;99.90;;;17.47;100.00;97620.81;5007577;28;20056;-77
2023/08/05 07:59:30;;;;;;;5.88;4.70;;;17.60;99.90;;;17.46;100.00;97613.84;5009631;28;20053;-77
2023/08/05 08:01:59;;;;;;;6.95;4.85;;;17.50;99.90;;;17.26;100.00;97602.13;5014577;28;20084;-77
2023/08/05 08:04:27;;;;;;;7.28;5.00;;;17.30;99.90;;;17.35;100.00;97603.28;5006134;28;20046;-78
2023/08/05 08:06:57;;;;;;;10.48;5.22;;;17.10;99.90;;;17.30;100.00;97606.22;5010644;28;20050;-77
2023/08/05 08:09:24;;;;;;;8.30;6.05;;;17.30;99.90;;;17.33;100.00;97611.28;5008367;28;20049;-78
2023/08/05 08:11:51;;;;;;;9.77;5.60;;;17.40;99.90;;;17.34;100.00;97604.22;5007251;28;20077;-77
2023/08/05 08:14:18;;;;;;;8.50;5.43;;;17.20;99.90;;;17.21;100.00;97598.16;5009013;28;20054;-77
2023/08/05 08:16:45;;;;;;;8.80;5.20;;;17.20;99.90;;;16.81;100.00;97593.84;5007101;28;20050;-77
2023/08/05 08:19:13;;;;;;;8.55;5.95;;;17.00;99.90;;;16.75;100.00;97604.72;5008034;28;20046;-77
2023/08/05 08:21:40;;;;;;;9.30;5.63;;;17.10;99.90;;;16.95;100.00;97607.81;5007648;28;20489;-78
2023/08/05 08:24:08;;;;;;;10.45;5.90;;;17.10;99.90;;;17.31;100.00;97601.81;5009748;28;20050;-77
2023/08/05 08:26:35;;;;;;;10.30;5.75;;;17.40;99.90;;;17.67;100.00;97595.75;5007687;28;20045;-77
2023/08/05 08:29:02;;;;;;;8.35;5.43;;;17.50;99.90;;;17.77;100.00;97591.53;5007759;28;20053;-77
2023/08/05 08:31:31;;;;;;;8.98;5.03;;;17.80;99.90;;;18.21;100.00;97577.97;5006166;28;20050;-77
2023/08/05 08:33:58;;;;;;;6.85;3.72;;;17.80;99.90;;;19.01;100.00;97562.28;5005507;28;20046;-77
2023/08/05 08:36:26;;;;;;;7.22;3.88;;;17.80;99.90;;;19.42;100.00;97555.59;5005436;28;20049;-76
2023/08/05 08:38:53;;;;;;;8.13;3.83;;;17.90;99.90;;;19.50;100.00;97545.31;5002710;28;20046;-78
2023/08/05 08:41:20;;;;;;;9.25;4.68;;;18.00;99.90;;;19.37;100.00;97558.59;5008011;28;20077;-77
2023/08/05 08:43:48;;;;;;;8.43;4.80;;;18.30;99.90;;;19.25;100.00;97569.22;5003243;28;20127;-77
2023/08/05 08:46:18;;;;;;;6.93;4.00;;;18.60;99.90;;;19.14;100.00;97562.19;5000601;28;20050;-76
2023/08/05 08:48:51;;;;;;;6.53;3.72;;;18.80;99.90;;;18.97;100.00;97551.16;5007795;28;20049;-77
2023/08/05 08:51:21;;;;;;;7.35;3.58;;;19.20;99.90;;;19.87;100.00;97541.56;4997830;28;20049;-77
2023/08/05 08:53:50;;;;;;;6.40;3.10;;;20.00;99.90;;;19.55;100.00;97545.78;5005929;28;20093;-77
2023/08/05 08:56:17;;;;;;;7.05;3.72;;;20.20;99.90;;;19.32;100.00;97547.59;5007966;28;20113;-77
2023/08/05 08:58:44;;;;;;;6.10;3.78;;;19.40;99.90;;;18.78;100.00;97553.53;5010692;28;20046;-77
2023/08/05 09:01:16;;;;;;;6.82;3.83;;;19.00;99.90;;;19.42;100.00;97551.16;5003062;28;20050;-77
2023/08/05 09:03:48;;;;;;;4.60;3.25;;;19.60;99.90;;;19.10;100.00;97544.97;5008870;28;20084;-78
2023/08/05 09:06:15;;;;;;;7.00;4.00;;;19.60;99.90;;;19.48;100.00;97543.72;5008566;28;20073;-77
2023/08/05 09:08:42;;;;;;;8.15;3.40;;;20.50;99.90;;;20.83;100.00;97540.63;5009845;28;20078;-78
2023/08/05 09:11:09;;;;;;;5.63;2.90;;;21.00;99.90;;;20.75;100.00;97532.50;5007813;28;21591;-78
2023/08/05 09:13:39;;;;;;;6.72;2.53;;;20.70;99.90;;;20.61;100.00;97523.13;5010701;28;20113;-77
2023/08/05 09:16:06;;;;;;;5.72;2.00;;;21.00;99.90;;;20.56;100.00;97520.88;5004807;28;20113;-78
2023/08/05 09:18:33;;;;;;;4.95;2.90;;;21.00;99.90;;;19.92;100.00;97523.56;5011642;28;20089;-78
2023/08/05 09:21:01;;;;;;;6.30;3.30;;;20.00;99.90;;;18.95;100.00;97537.31;5013192;28;20085;-78
2023/08/05 09:23:29;;;;;;;5.90;2.42;;;19.20;99.90;;;18.78;100.00;97533.34;5010354;28;20054;-78
2023/08/05 09:25:56;;;;;;;5.78;2.63;;;18.70;99.90;;;18.17;100.00;97522.16;5008066;28;20290;-78
2023/08/05 09:28:31;;;;;;;3.58;1.80;;;18.50;99.90;;;18.24;100.00;97530.44;5012007;28;20108;-78
2023/08/05 09:31:15;;;;;;;6.32;2.58;;;18.30;99.90;;;17.80;100.00;97524.84;5008366;28;20091;-78
2023/08/05 09:33:43;;;;;;;4.15;2.47;;;18.10;99.90;;;18.75;100.00;97533.53;5007646;28;20046;-77
2023/08/05 09:36:12;;;;;;;3.88;1.83;;;18.70;99.90;;;19.26;100.00;97520.91;5004543;28;20061;-77
2023/08/05 09:38:40;;;;;;;5.63;1.98;;;19.40;99.90;;;18.54;100.00;97525.50;5006317;28;20045;-77
2023/08/05 09:41:07;;;;;;;5.95;2.28;;;;;;;18.72;100.00;97515.34;5009447;28;20432;-77
2023/08/05 09:43:40;;;;;;;5.78;1.30;;;19.40;99.90;;;19.11;100.00;97515.06;5015012;28;20084;-79
2023/08/05 09:46:11;;;;;;;4.20;1.30;;;19.20;99.90;;;18.94;100.00;97506.69;5003695;28;20092;-79
2023/08/05 09:48:43;;;;;;;2.65;1.75;;;19.00;99.90;;;19.91;100.00;97503.44;5007325;28;20101;-78
2023/08/05 09:51:16;;;;;;;4.20;1.75;;;19.30;99.90;;;20.68;100.00;97495.28;5004888;28;20049;-77
2023/08/05 09:53:46;;;;;;;3.67;1.63;;;20.00;99.90;;;20.75;100.00;97499.06;5007949;28;20531;-78
2023/08/05 09:56:18;;;;;;;5.25;1.55;;;19.90;99.90;;;21.17;100.00;97498.97;4994443;28;20054;-79
2023/08/05 09:58:48;;;;;;;4.43;1.48;;;20.60;99.90;;;21.40;100.00;97496.13;5011578;28;20049;-79
2023/08/05 10:01:18;;;;;;;5.28;1.90;;;21.30;99.90;;;20.26;100.00;97485.56;5011504;28;20113;-77
2023/08/05 10:03:48;;;;;;;4.20;1.50;;;21.20;99.90;;;20.08;100.00;97496.81;5010097;28;20438;-79
2023/08/05 10:06:16;;;;;;;3.95;2.00;;;20.60;99.90;;;20.92;100.00;97492.34;5009292;28;20060;-78
2023/08/05 10:08:44;;;;;;;3.25;1.83;;;20.40;99.90;;;21.27;100.00;97489.28;5010720;28;20054;-78
2023/08/05 10:11:11;;;;;;;6.25;2.00;;;20.60;99.90;;;22.13;100.00;97484.28;5007459;28;20120;-78
2023/08/05 10:13:45;;;;;;;4.10;1.60;;;21.00;99.90;;;21.77;100.00;97490.25;5004729;28;20593;-78
2023/08/05 10:16:13;;;;;;;4.80;1.58;;;20.90;99.90;;;20.26;100.00;97487.38;5010123;28;21058;-78